createdAt,value
2022-08-08T00:02:03.462Z,0.08
2022-08-08T00:04:32.765Z,0.10
2022-08-08T00:07:09.262Z,0.10
2022-08-08T00:09:52.460Z,0.10
2022-08-08T00:12:23.873Z,0.10
2022-08-08T00:14:59.779Z,0.10
2022-08-08T00:17:58.332Z,0.10
2022-08-08T00:20:29.801Z,0.00
2022-08-08T00:22:59.714Z,0.10
2022-08-08T00:25:44.654Z,0.10
2022-08-08T00:28:34.202Z,0.00
2022-08-08T00:32:15.289Z,0.00
2022-08-08T00:34:18.593Z,0.10
2022-08-08T00:36:51.485Z,0.00
2022-08-08T00:39:36.235Z,0.10
2022-08-08T00:42:33.069Z,0.10
2022-08-08T00:45:03.217Z,0.10
2022-08-08T00:47:36.890Z,0.03
2022-08-08T00:50:34.866Z,0.00
2022-08-08T00:53:15.599Z,0.15
2022-08-08T00:55:53.963Z,0.10
2022-08-08T00:58:33.377Z,0.10
2022-08-08T01:01:07.372Z,0.10
2022-08-08T01:03:58.370Z,0.10
2022-08-08T01:06:41.600Z,0.00
2022-08-08T01:09:34.825Z,0.10
2022-08-08T01:12:09.364Z,0.00
2022-08-08T01:14:53.515Z,0.00
2022-08-08T01:17:53.841Z,0.10
2022-08-08T01:20:44.219Z,0.10
2022-08-08T01:24:06.377Z,0.10
2022-08-08T01:26:39.261Z,0.10
2022-08-08T01:29:35.186Z,0.10
2022-08-08T01:32:15.338Z,0.10
2022-08-08T01:34:46.048Z,0.10
2022-08-08T01:37:41.239Z,0.10
2022-08-08T01:40:28.038Z,0.10
2022-08-08T01:43:12.519Z,0.10
2022-08-08T01:45:56.442Z,0.10
2022-08-08T01:48:43.835Z,0.10
2022-08-08T01:52:53.669Z,0.10
2022-08-08T01:55:44.958Z,0.10
2022-08-08T01:58:04.267Z,0.10
2022-08-08T02:00:26.213Z,0.10
2022-08-08T02:03:57.552Z,0.10
2022-08-08T02:06:32.406Z,0.03
2022-08-08T02:09:03.096Z,0.10
2022-08-08T02:11:59.435Z,0.10
2022-08-08T02:14:34.841Z,0.10
2022-08-08T02:17:24.686Z,0.10
2022-08-08T02:20:08.370Z,0.10
2022-08-08T02:22:52.545Z,0.10
2022-08-08T02:25:43.722Z,0.10
2022-08-08T02:28:15.921Z,0.10
2022-08-08T02:30:50.070Z,0.10
2022-08-08T02:33:41.518Z,0.10
2022-08-08T02:36:28.618Z,0.00
2022-08-08T02:39:01.031Z,0.10
2022-08-08T02:42:03.636Z,0.10
2022-08-08T02:44:39.152Z,0.10
2022-08-08T02:47:37.925Z,0.10
2022-08-08T02:50:33.021Z,0.20
2022-08-08T02:53:07.255Z,0.10
2022-08-08T02:55:59.850Z,0.13
2022-08-08T02:58:32.676Z,0.10
2022-08-08T03:00:59.060Z,0.10
2022-08-08T03:05:00.750Z,0.20
2022-08-08T03:06:43.014Z,0.10
2022-08-08T03:09:28.599Z,0.10
2022-08-08T03:12:14.497Z,0.10
2022-08-08T03:16:00.049Z,0.00
2022-08-08T03:17:42.496Z,0.10
2022-08-08T03:20:18.468Z,0.10
2022-08-08T03:22:47.295Z,0.10
2022-08-08T03:25:18.193Z,0.10
2022-08-08T03:27:45.547Z,0.13
2022-08-08T03:30:19.005Z,0.10
2022-08-08T03:33:07.821Z,0.10
2022-08-08T03:35:51.349Z,0.20
2022-08-08T03:38:55.717Z,0.10
2022-08-08T03:41:32.198Z,0.10
2022-08-08T03:43:56.706Z,0.10
2022-08-08T03:46:26.102Z,0.00
2022-08-08T03:49:30.932Z,0.10
2022-08-08T03:51:51.907Z,0.10
2022-08-08T03:54:41.793Z,0.08
2022-08-08T03:58:33.248Z,0.00
2022-08-08T04:00:02.596Z,0.10
2022-08-08T04:02:47.679Z,0.10
2022-08-08T04:05:19.491Z,0.10
2022-08-08T04:07:54.075Z,0.10
2022-08-08T04:10:20.593Z,0.17
2022-08-08T04:12:48.582Z,0.10
2022-08-08T04:15:16.282Z,0.10
2022-08-08T04:17:58.267Z,0.10
2022-08-08T04:20:28.760Z,0.10
2022-08-08T04:22:56.896Z,0.10
2022-08-08T04:25:30.225Z,0.10
2022-08-08T04:28:35.831Z,0.10
2022-08-08T04:30:45.598Z,0.00
2022-08-08T04:33:12.585Z,0.10
2022-08-08T04:35:50.890Z,0.10
2022-08-08T04:38:21.418Z,0.10
2022-08-08T04:40:53.969Z,0.10
2022-08-08T04:43:22.145Z,0.10
2022-08-08T04:45:49.472Z,0.10
2022-08-08T04:48:16.096Z,0.10
2022-08-08T04:50:44.705Z,0.20
2022-08-08T04:53:52.081Z,0.10
2022-08-08T04:55:59.694Z,0.10
2022-08-08T04:58:26.085Z,0.10
2022-08-08T05:00:52.505Z,0.10
2022-08-08T05:04:11.360Z,0.00
2022-08-08T05:06:13.787Z,0.00
2022-08-08T05:08:45.011Z,0.10
2022-08-08T05:11:20.076Z,0.10
2022-08-08T05:13:58.190Z,0.10
2022-08-08T05:16:52.411Z,0.00
2022-08-08T05:20:09.082Z,0.00
2022-08-08T05:22:00.708Z,0.00
2022-08-08T05:24:27.384Z,0.00
2022-08-08T05:26:53.716Z,0.00
2022-08-08T05:29:20.194Z,0.00
2022-08-08T05:32:03.445Z,0.00
2022-08-08T05:34:40.779Z,0.00
2022-08-08T05:37:17.002Z,0.00
2022-08-08T05:39:55.792Z,0.00
2022-08-08T05:42:52.722Z,0.00
2022-08-08T05:45:31.238Z,0.00
2022-08-08T05:48:01.232Z,0.00
2022-08-08T05:50:36.039Z,0.00
2022-08-08T05:53:53.775Z,0.00
2022-08-08T05:56:10.422Z,0.00
2022-08-08T05:58:39.303Z,0.00
2022-08-08T06:01:56.105Z,0.00
2022-08-08T06:04:13.833Z,0.00
2022-08-08T06:06:51.078Z,0.00
2022-08-08T06:09:59.440Z,0.00
2022-08-08T06:12:06.338Z,0.00
2022-08-08T06:14:32.861Z,0.00
2022-08-08T06:17:01.533Z,0.00
2022-08-08T06:19:29.017Z,0.00
2022-08-08T06:22:31.956Z,0.08
2022-08-08T06:24:53.329Z,0.00
2022-08-08T06:27:24.533Z,0.00
2022-08-08T06:30:03.373Z,0.00
2022-08-08T06:32:31.278Z,0.00
2022-08-08T06:36:04.575Z,0.00
2022-08-08T06:37:55.023Z,0.00
2022-08-08T06:40:26.680Z,0.00
2022-08-08T06:42:56.599Z,0.00
2022-08-08T06:45:23.289Z,0.00
2022-08-08T06:47:52.755Z,0.00
2022-08-08T06:50:32.270Z,0.00
2022-08-08T06:53:09.762Z,0.00
2022-08-08T06:55:42.062Z,0.00
2022-08-08T06:58:09.686Z,0.00
2022-08-08T07:00:40.806Z,0.00
2022-08-08T07:03:09.408Z,0.00
2022-08-08T07:06:02.133Z,0.00
2022-08-08T07:08:33.704Z,0.00
2022-08-08T07:11:03.095Z,0.10
2022-08-08T07:14:00.749Z,0.00
2022-08-08T07:16:34.219Z,0.00
2022-08-08T07:19:07.289Z,0.00
2022-08-08T07:21:50.616Z,0.00
2022-08-08T07:24:22.989Z,0.05
2022-08-08T07:26:53.080Z,0.00
2022-08-08T07:29:55.437Z,0.00
2022-08-08T07:32:09.757Z,0.00
2022-08-08T07:34:36.973Z,0.00
2022-08-08T07:37:15.219Z,0.10
2022-08-08T07:39:55.909Z,0.00
2022-08-08T07:42:32.799Z,0.00
2022-08-08T07:44:59.866Z,0.00
2022-08-08T07:47:38.291Z,0.00
2022-08-08T07:50:06.162Z,0.00
2022-08-08T07:52:34.853Z,0.10
2022-08-08T07:55:05.649Z,0.00
2022-08-08T07:57:44.691Z,0.00
2022-08-08T08:00:16.988Z,0.05
2022-08-08T08:02:44.818Z,0.20
2022-08-08T08:05:16.226Z,0.05
2022-08-08T08:07:45.820Z,0.10
2022-08-08T08:10:13.986Z,0.10
2022-08-08T08:12:44.733Z,0.00
2022-08-08T08:15:15.664Z,0.05
2022-08-08T08:17:48.022Z,0.00
2022-08-08T08:20:16.434Z,0.10
2022-08-08T08:22:43.228Z,0.00
2022-08-08T08:25:09.632Z,0.20
2022-08-08T08:27:36.803Z,0.20
2022-08-08T08:30:03.989Z,0.10
2022-08-08T08:32:36.316Z,0.15
2022-08-08T08:35:04.767Z,0.10
2022-08-08T08:37:32.170Z,0.20
2022-08-08T08:40:01.551Z,0.05
2022-08-08T08:42:31.789Z,0.13
2022-08-08T08:45:21.640Z,0.13
2022-08-08T08:47:53.106Z,0.10
2022-08-08T08:50:33.361Z,0.10
2022-08-08T08:53:04.945Z,0.10
2022-08-08T08:55:50.227Z,0.10
2022-08-08T08:58:31.157Z,0.20
2022-08-08T09:01:09.237Z,0.20
2022-08-08T09:03:47.105Z,0.10
2022-08-08T09:06:28.340Z,0.10
2022-08-08T09:09:07.413Z,0.05
2022-08-08T09:11:47.588Z,0.10
2022-08-08T09:14:28.705Z,0.10
2022-08-08T09:16:55.447Z,0.00
2022-08-08T09:21:54.345Z,0.00
2022-08-08T09:22:09.008Z,0.10
2022-08-08T09:24:36.210Z,0.00
2022-08-08T09:27:03.547Z,0.20
2022-08-08T09:29:32.261Z,0.30
2022-08-08T09:32:05.919Z,0.20
2022-08-08T09:34:39.386Z,0.20
2022-08-08T09:37:39.405Z,0.20
2022-08-08T09:40:03.873Z,0.20
2022-08-08T09:42:43.751Z,0.20
2022-08-08T09:45:55.012Z,0.10
2022-08-08T09:48:23.502Z,0.10
2022-08-08T09:50:56.637Z,0.10
2022-08-08T09:53:52.840Z,0.10
2022-08-08T09:56:21.763Z,0.00
2022-08-08T09:58:57.757Z,0.10
2022-08-08T10:01:59.917Z,0.20
2022-08-08T10:04:15.141Z,0.17
2022-08-08T10:07:07.216Z,0.10
2022-08-08T10:09:58.845Z,0.10
2022-08-08T10:12:37.913Z,0.10
2022-08-08T10:15:18.387Z,0.30
2022-08-08T10:18:05.977Z,0.13
2022-08-08T10:20:51.259Z,0.20
2022-08-08T10:23:48.331Z,0.30
2022-08-08T10:26:29.729Z,0.20
2022-08-08T10:29:11.242Z,0.00
2022-08-08T10:31:57.539Z,0.13
2022-08-08T10:34:27.402Z,0.10
2022-08-08T10:36:54.858Z,0.10
2022-08-08T10:39:42.970Z,0.28
2022-08-08T10:42:15.046Z,0.20
2022-08-08T10:44:43.089Z,0.10
2022-08-08T10:47:20.678Z,0.17
2022-08-08T10:50:01.251Z,0.10
2022-08-08T10:52:31.489Z,0.10
2022-08-08T10:55:06.311Z,0.00
2022-08-08T10:57:50.687Z,0.00
2022-08-08T11:00:25.636Z,0.00
2022-08-08T11:02:52.705Z,0.13
2022-08-08T11:05:19.309Z,0.30
2022-08-08T11:08:37.905Z,0.40
2022-08-08T11:13:29.004Z,0.20
2022-08-08T11:16:01.077Z,0.10
2022-08-08T11:18:35.251Z,0.20
2022-08-08T11:21:09.295Z,0.10
2022-08-08T11:23:46.320Z,0.17
2022-08-08T11:26:29.696Z,0.20
2022-08-08T11:28:59.217Z,0.10
2022-08-08T11:31:27.434Z,0.00
2022-08-08T11:34:03.049Z,0.03
2022-08-08T11:36:31.482Z,0.10
2022-08-08T11:38:58.221Z,0.20
2022-08-08T11:41:28.081Z,0.10
2022-08-08T11:44:00.494Z,0.10
2022-08-08T11:46:31.799Z,0.10
2022-08-08T11:49:00.971Z,0.10
2022-08-08T11:54:26.652Z,0.00
2022-08-08T11:56:56.072Z,0.20
2022-08-08T11:59:56.917Z,0.10
2022-08-08T12:02:31.701Z,0.00
2022-08-08T12:05:13.063Z,0.20
2022-08-08T12:07:51.187Z,0.60
2022-08-08T12:10:19.686Z,0.40
2022-08-08T12:12:48.089Z,0.20
2022-08-08T12:15:28.538Z,0.20
2022-08-08T12:17:54.944Z,0.20
2022-08-08T12:20:21.395Z,0.10
2022-08-08T12:22:51.100Z,0.10
2022-08-08T12:25:20.081Z,0.10
2022-08-08T12:27:51.709Z,0.10
2022-08-08T12:30:28.941Z,0.10
2022-08-08T12:32:58.636Z,0.20
2022-08-08T12:35:24.965Z,0.20
2022-08-08T12:38:03.613Z,0.10
2022-08-08T12:40:54.310Z,0.10
2022-08-08T12:43:28.569Z,0.20
2022-08-08T12:46:03.454Z,0.20
2022-08-08T12:51:04.217Z,0.20
2022-08-08T12:53:37.966Z,0.13
2022-08-08T12:56:18.978Z,0.17
2022-08-08T12:58:51.003Z,0.10
2022-08-08T13:01:29.512Z,0.17
2022-08-08T13:04:12.926Z,0.20
2022-08-08T13:06:55.853Z,0.15
2022-08-08T13:09:43.081Z,0.10
2022-08-08T13:12:28.662Z,0.20
2022-08-08T13:14:56.828Z,0.30
2022-08-08T13:17:54.078Z,0.10
2022-08-08T13:20:18.128Z,0.10
2022-08-08T13:22:45.256Z,0.17
2022-08-08T13:25:16.150Z,0.20
2022-08-08T13:27:43.229Z,0.15
2022-08-08T13:30:10.481Z,0.00
2022-08-08T13:32:39.470Z,0.00
2022-08-08T13:35:11.672Z,0.00
2022-08-08T13:38:06.194Z,0.10
2022-08-08T13:40:35.080Z,0.00
2022-08-08T13:43:02.058Z,0.05
2022-08-08T13:45:30.898Z,0.00
2022-08-08T13:48:01.344Z,0.10
2022-08-08T13:50:39.559Z,0.20
2022-08-08T13:53:39.050Z,0.10
2022-08-08T13:56:11.017Z,0.20
2022-08-08T13:58:48.265Z,0.30
2022-08-08T14:01:41.928Z,0.30
2022-08-08T14:04:20.214Z,0.10
2022-08-08T14:06:47.407Z,0.10
2022-08-08T14:09:24.308Z,0.10
2022-08-08T14:11:57.812Z,0.00
2022-08-08T14:14:34.128Z,0.10
2022-08-08T14:17:03.203Z,0.10
2022-08-08T14:19:57.989Z,0.20
2022-08-08T14:22:26.800Z,0.40
2022-08-08T14:24:55.412Z,0.20
2022-08-08T14:27:29.015Z,0.20
2022-08-08T14:29:59.945Z,0.28
2022-08-08T14:32:29.986Z,0.30
2022-08-08T14:34:58.298Z,0.20
2022-08-08T14:37:27.964Z,0.20
2022-08-08T14:40:10.092Z,0.10
2022-08-08T14:42:54.496Z,0.10
2022-08-08T14:45:33.336Z,0.20
2022-08-08T14:48:10.577Z,0.10
2022-08-08T14:50:39.513Z,0.10
2022-08-08T14:53:13.379Z,0.10
2022-08-08T14:55:41.967Z,0.10
2022-08-08T14:58:12.173Z,0.08
2022-08-08T15:00:43.409Z,0.00
2022-08-08T15:03:16.060Z,0.10
2022-08-08T15:05:53.249Z,0.10
2022-08-08T15:08:34.806Z,0.10
2022-08-08T15:11:06.535Z,0.05
2022-08-08T15:13:35.158Z,0.20
2022-08-08T15:16:08.506Z,0.13
2022-08-08T15:18:40.066Z,0.10
2022-08-08T15:21:10.513Z,0.10
2022-08-08T15:23:37.495Z,0.10
2022-08-08T15:26:04.141Z,0.10
2022-08-08T15:28:33.584Z,0.10
2022-08-08T15:31:01.271Z,0.10
2022-08-08T15:33:36.599Z,0.10
2022-08-08T15:36:05.394Z,0.03
2022-08-08T15:38:32.637Z,0.10
2022-08-08T15:40:59.304Z,0.20
2022-08-08T15:43:34.864Z,0.20
2022-08-08T15:46:03.293Z,0.15
2022-08-08T15:48:29.938Z,0.10
2022-08-08T15:51:06.276Z,0.10
2022-08-08T15:53:49.090Z,0.20
2022-08-08T15:56:16.495Z,0.30
2022-08-08T15:58:48.579Z,0.10
2022-08-08T16:01:15.856Z,0.15
2022-08-08T16:03:42.312Z,0.10
2022-08-08T16:06:14.325Z,0.00
2022-08-08T16:13:00.383Z,0.10
2022-08-08T16:13:15.667Z,0.20
2022-08-08T16:14:16.053Z,0.20
2022-08-08T16:16:58.823Z,0.20
2022-08-08T16:19:26.104Z,0.10
2022-08-08T16:21:53.995Z,0.00
2022-08-08T16:24:22.952Z,0.10
2022-08-08T16:26:50.821Z,0.10
2022-08-08T16:29:19.424Z,0.10
2022-08-08T16:32:03.860Z,0.10
2022-08-08T16:34:37.686Z,0.10
2022-08-08T16:37:05.410Z,0.10
2022-08-08T16:40:02.547Z,0.10
2022-08-08T16:42:18.760Z,0.10
2022-08-08T16:44:53.942Z,0.03
2022-08-08T16:47:41.516Z,0.10
2022-08-08T16:50:13.648Z,0.00
2022-08-08T16:55:06.257Z,0.10
2022-08-08T16:55:42.515Z,0.10
2022-08-08T16:58:18.618Z,0.10
2022-08-08T17:03:15.907Z,0.13
2022-08-08T17:05:45.329Z,0.10
2022-08-08T17:08:11.763Z,0.00
2022-08-08T17:10:40.403Z,0.00
2022-08-08T17:13:27.298Z,0.03
2022-08-08T17:16:07.059Z,0.10
2022-08-08T17:18:42.002Z,0.20
2022-08-08T17:21:08.966Z,0.20
2022-08-08T17:24:00.066Z,0.08
2022-08-08T17:26:29.014Z,0.20
2022-08-08T17:28:55.975Z,0.40
2022-08-08T17:31:44.924Z,0.35
2022-08-08T17:34:53.417Z,0.10
2022-08-08T17:37:00.722Z,0.20
2022-08-08T17:40:03.780Z,0.20
2022-08-08T17:42:18.163Z,0.13
2022-08-08T17:44:45.123Z,0.20
2022-08-08T17:47:16.347Z,0.30
2022-08-08T17:50:01.568Z,0.30
2022-08-08T17:54:56.632Z,0.60
2022-08-08T17:57:23.410Z,0.60
2022-08-08T17:59:51.652Z,0.70
2022-08-08T18:02:28.958Z,0.60
2022-08-08T18:08:04.063Z,0.60
2022-08-08T18:10:11.172Z,0.60
2022-08-08T18:12:37.574Z,0.70
2022-08-08T18:15:04.110Z,0.68
2022-08-08T18:18:10.111Z,0.40
2022-08-08T18:20:36.959Z,0.52
2022-08-08T18:23:06.715Z,0.40
2022-08-08T18:25:41.027Z,0.35
2022-08-08T18:28:07.784Z,0.30
2022-08-08T18:30:40.793Z,0.30
2022-08-08T18:33:07.377Z,0.40
2022-08-08T18:35:41.881Z,0.40
2022-08-08T18:38:16.969Z,0.50
2022-08-08T18:40:45.780Z,0.50
2022-08-08T18:43:14.935Z,0.30
2022-08-08T18:46:52.998Z,0.30
2022-08-08T18:48:29.872Z,0.30
2022-08-08T18:50:58.343Z,0.50
2022-08-08T18:53:25.241Z,0.30
2022-08-08T18:56:31.185Z,0.30
2022-08-08T18:58:57.786Z,0.30
2022-08-08T19:02:28.294Z,0.30
2022-08-08T19:04:12.770Z,0.43
2022-08-08T19:06:39.556Z,0.38
2022-08-08T19:09:13.255Z,0.60
2022-08-08T19:11:46.328Z,0.50
2022-08-08T19:14:13.410Z,0.30
2022-08-08T19:16:47.049Z,0.32
2022-08-08T19:19:14.011Z,0.40
2022-08-08T19:21:49.436Z,0.35
2022-08-08T19:24:34.161Z,0.32
2022-08-08T19:27:04.723Z,0.32
2022-08-08T19:29:32.383Z,0.30
2022-08-08T19:32:01.992Z,0.40
2022-08-08T19:34:35.819Z,0.40
2022-08-08T19:37:05.211Z,0.20
2022-08-08T19:39:35.799Z,0.60
2022-08-08T19:42:06.809Z,0.35
2022-08-08T19:44:45.508Z,0.20
2022-08-08T19:47:16.610Z,0.40
2022-08-08T19:49:59.642Z,0.38
2022-08-08T19:52:34.778Z,0.30
2022-08-08T19:55:08.832Z,0.40
2022-08-08T19:57:37.714Z,0.30
2022-08-08T20:00:11.635Z,0.30
2022-08-08T20:02:55.337Z,0.30
2022-08-08T20:06:15.393Z,0.22
2022-08-08T20:08:29.642Z,0.40
2022-08-08T20:10:54.643Z,0.30
2022-08-08T20:14:12.714Z,0.20
2022-08-08T20:16:09.079Z,0.52
2022-08-08T20:18:37.357Z,0.22
2022-08-08T20:21:25.116Z,0.50
2022-08-08T20:23:57.702Z,0.20
2022-08-08T20:26:27.576Z,0.30
2022-08-08T20:28:59.941Z,0.20
2022-08-08T20:31:28.246Z,0.20
2022-08-08T20:34:29.544Z,0.28
2022-08-08T20:36:57.173Z,0.20
2022-08-08T20:39:23.814Z,0.20
2022-08-08T20:41:53.376Z,0.20
2022-08-08T20:44:19.766Z,0.30
2022-08-08T20:46:49.046Z,0.20
2022-08-08T20:49:15.623Z,0.40
2022-08-08T20:51:43.080Z,0.30
2022-08-08T20:54:14.453Z,0.30
2022-08-08T20:57:11.778Z,0.30
2022-08-08T20:59:41.242Z,0.30
2022-08-08T21:02:09.032Z,0.30
2022-08-08T21:04:39.050Z,0.20
2022-08-08T21:07:08.588Z,0.35
2022-08-08T21:10:01.703Z,0.30
2022-08-08T21:12:33.368Z,0.30
2022-08-08T21:15:07.079Z,0.40
2022-08-08T21:17:39.485Z,0.30
2022-08-08T21:20:06.682Z,0.15
2022-08-08T21:22:33.631Z,0.40
2022-08-08T21:25:00.136Z,0.20
2022-08-08T21:28:06.308Z,0.20
2022-08-08T21:30:18.622Z,0.15
2022-08-08T21:32:51.694Z,0.20
2022-08-08T21:36:18.729Z,0.20
2022-08-08T21:38:05.679Z,0.20
2022-08-08T21:40:38.458Z,0.10
2022-08-08T21:43:05.905Z,0.30
2022-08-08T21:48:01.328Z,0.20
2022-08-08T21:48:31.657Z,0.10
2022-08-08T21:51:10.092Z,0.30
2022-08-08T21:54:22.620Z,0.20
2022-08-08T21:56:31.300Z,0.10
2022-08-08T21:59:02.384Z,0.20
2022-08-08T22:01:41.100Z,0.30
2022-08-08T22:04:10.322Z,0.30
2022-08-08T22:06:40.558Z,0.20
2022-08-08T22:09:08.860Z,0.30
2022-08-08T22:12:04.690Z,0.20
2022-08-08T22:14:22.571Z,0.10
2022-08-08T22:16:51.146Z,0.17
2022-08-08T22:19:20.080Z,0.20
2022-08-08T22:21:50.740Z,0.10
2022-08-08T22:24:17.303Z,0.10
2022-08-08T22:27:01.796Z,0.17
2022-08-08T22:30:02.511Z,0.00
2022-08-08T22:32:18.187Z,0.10
2022-08-08T22:34:50.440Z,0.10
2022-08-08T22:37:48.988Z,0.10
2022-08-08T22:40:05.340Z,0.20
2022-08-08T22:42:34.562Z,0.00
2022-08-08T22:45:01.875Z,0.10
2022-08-08T22:47:34.281Z,0.10
2022-08-08T22:50:05.344Z,0.10
2022-08-08T22:52:36.432Z,0.10
2022-08-08T22:55:05.130Z,0.20
2022-08-08T22:57:44.250Z,0.20
2022-08-08T23:00:16.465Z,0.15
2022-08-08T23:02:44.657Z,0.10
2022-08-08T23:05:16.633Z,0.10
2022-08-08T23:07:49.303Z,0.15
2022-08-08T23:10:19.674Z,0.20
2022-08-08T23:12:48.331Z,0.20
2022-08-08T23:16:39.726Z,0.10
2022-08-08T23:18:07.397Z,0.20
2022-08-08T23:20:34.172Z,0.10
2022-08-08T23:23:00.576Z,0.10
2022-08-08T23:25:27.023Z,0.20
2022-08-08T23:27:54.825Z,0.10
2022-08-08T23:30:22.691Z,0.20
2022-08-08T23:32:50.245Z,0.20
2022-08-08T23:35:18.778Z,0.28
2022-08-08T23:38:03.158Z,0.20
2022-08-08T23:40:30.608Z,0.25
2022-08-08T23:42:57.057Z,0.20
2022-08-08T23:49:05.057Z,0.20
2022-08-08T23:49:08.768Z,0.10
2022-08-08T23:50:57.529Z,0.10
2022-08-08T23:54:04.902Z,0.20
2022-08-08T23:56:10.656Z,0.13
2022-08-08T23:58:38.656Z,0.10
